This is the latest recevied weather packets stored in our database for station/object K6CQU-13. If no packets are shown the sender has not sent any weather packets the latest 10 day(s).
| Time | Temp. | Humidity | Pressure | Rain* | Wind** | Luminosity | Snow |
|---|---|---|---|---|---|---|---|
| 1787871017 | 34.44° C | 34% | 1012.6 hPa | 0 mm | - | 261 W/m² | - |
| 1787870717 | 35° C | 33% | 1012.6 hPa | 0 mm | - | 244 W/m² | - |
| 1787870417 | 35° C | 32% | 1012.6 hPa | 0 mm | - | 291 W/m² | - |
| 1787870117 | 35.56° C | 33% | 1012.5 hPa | 0 mm | - | 339 W/m² | - |
| 1787869817 | 35.56° C | 34% | 1012.5 hPa | 0 mm | - | 423 W/m² | - |
| 1787869517 | 35° C | 33% | 1012.6 hPa | 0 mm | - | 508 W/m² | - |
| 1787869217 | 35° C | 34% | 1012.7 hPa | 0 mm | - | 627 W/m² | - |
| 1787868917 | 34.44° C | 36% | 1012.8 hPa | 0 mm | - | 859 W/m² | - |
| 1787868617 | 33.89° C | 33% | 1012.8 hPa | 0 mm | - | 545 W/m² | - |
| 1787868317 | 33.89° C | 37% | 1012.8 hPa | 0 mm | - | 465 W/m² | - |
| 1787868017 | 33.89° C | 39% | 1012.9 hPa | 0 mm | - | 554 W/m² | - |
| 1787867717 | 33.33° C | 39% | 1012.9 hPa | 0 mm | - | 438 W/m² | - |
| 1787867417 | 33.33° C | 38% | 1013 hPa | 0 mm | - | 355 W/m² | - |
| 1787867117 | 33.33° C | 38% | 1013 hPa | 0 mm | - | 363 W/m² | - |
| 1787866817 | 32.78° C | 39% | 1013 hPa | 0 mm | - | 378 W/m² | - |
| 1787866516 | 32.78° C | 40% | 1013.1 hPa | 0 mm | - | 544 W/m² | - |
| 1787866217 | 32.22° C | 41% | 1013.1 hPa | 0 mm | - | 584 W/m² | - |
| 1787865917 | 32.22° C | 41% | 1013 hPa | 0 mm | - | 596 W/m² | - |
| 1787865617 | 32.22° C | 42% | 1013.1 hPa | 0 mm | - | 639 W/m² | - |
| 1787865317 | 31.67° C | 43% | 1013.2 hPa | 0 mm | - | 695 W/m² | - |
| 1787865017 | 31.67° C | 43% | 1013.2 hPa | 0 mm | - | 633 W/m² | - |
| 1787864717 | 31.67° C | 42% | 1013.2 hPa | 0 mm | - | 413 W/m² | - |
| 1787864417 | 31.11° C | 43% | 1013.2 hPa | 0 mm | - | 566 W/m² | - |
| 1787864116 | 31.11° C | 42% | 1013.2 hPa | 0 mm | - | 432 W/m² | - |
| 1787863817 | 31.11° C | 42% | 1013.3 hPa | 0 mm | - | 408 W/m² | - |
* Rain latest hour (hover to see other rain measurements)
** Current wind speed in m/s (hover to see current wind gust speed)